Terminal Aerodrome Forecast
Issued by NWS

Home | Current Version | Previous Version | Text Only | Print | Product List | Glossary On
Versions: 1 2 3 4 5 6 7 8 9 10 11 12 13 14
000
FTUS45 KRIW 211120
TAFCPR
TAF
KCPR 211120Z 2112/2212 29007KT P6SM SCT120
     FM211500 02008KT P6SM SCT120
     FM220100 VRB08KT P6SM VCSH SCT070 BKN100
     FM220400 03007KT P6SM SCT100=

USA.gov is the U.S. government's official web portal to all federal, state and local government web resources and services.